KVCT - Victoria Rgnl, TX, US

Issued at 1720 UTC 29 May 2020
Updated at 2204 UTC 29 May 2020
Potential Impact None Slight Moderate High
Time2151Z 29/23Z 30/00Z 30/01Z 30/02Z 30/03Z 30/04Z 30/05Z 30/06Z 30/07Z 30/08Z 30/09Z 30/10Z 30/11Z>>
Type OBS PRVL PRVL PRVL PRVL PRVL PRVL PRVL PRVL PRVL PRVL PRVL PRVL PRVL
VIS 10 >6 >6 >6 >6 >6 >6 >6 >6 >6 >6 >6 >6 >6
CIG -- 250 250 250 250 250 250 250 250 250 250 250 250 250
Cover CLR BKN BKN BKN BKN BKN BKN BKN BKN BKN BKN BKN BKN BKN
FltCat VFR VFR VFR VFR VFR VFR VFR VFR VFR VFR VFR VFR VFR VFR
WX -- -- -- -- -- -- -- -- -- -- -- -- -- --
WDir 20 10 360 360 360 360 360 360 360 360 360 360 360 360
WSpd 8 13 6 6 6 6 6 6 6 6 6 6 6 6
WGst -- -- -- -- -- -- -- -- -- -- -- -- -- --
Raw TAF
KVCT 291720Z 2918/3018 01013KT P6SM SCT040 BKN250
  FM300000 36006KT P6SM SCT040 BKN250
  FM301400 05008KT P6SM SCT050


Raw METAR
KVCT 292151Z 02008KT 10SM CLR 32/19 A3003 RMK AO2 SLP166 T03170189
KVCT 292051Z 35008KT 10SM SCT049 32/18 A3003 RMK AO2 SLP168 T03170183 58012
KVCT 291951Z 36009KT 10SM BKN049 BKN055 BKN075 31/19 A3005 RMK AO2 SLP175 T03110189

METAR Board
Radar Display
Forecast Discussion
For situational awareness. Not to be used for flight planning purposes.